sensor_id;sensor_type;location;lat;lon;timestamp;P1;durP1;ratioP1;P2;durP2;ratioP2
7661;SDS011;30314;48.184;11.510;2023-05-29T00:01:17;17.40;;;9.93;;
7661;SDS011;30314;48.184;11.510;2023-05-29T00:03:45;16.17;;;9.43;;
7661;SDS011;30314;48.184;11.510;2023-05-29T00:06:11;16.30;;;9.80;;
7661;SDS011;30314;48.184;11.510;2023-05-29T00:08:38;16.07;;;10.77;;
7661;SDS011;30314;48.184;11.510;2023-05-29T00:11:05;16.23;;;10.50;;
7661;SDS011;30314;48.184;11.510;2023-05-29T00:13:32;19.47;;;10.80;;
7661;SDS011;30314;48.184;11.510;2023-05-29T00:15:58;17.93;;;10.90;;
7661;SDS011;30314;48.184;11.510;2023-05-29T00:18:27;14.63;;;9.63;;
7661;SDS011;30314;48.184;11.510;2023-05-29T00:20:53;16.63;;;10.90;;
7661;SDS011;30314;48.184;11.510;2023-05-29T00:23:20;20.00;;;10.10;;
7661;SDS011;30314;48.184;11.510;2023-05-29T00:25:47;18.50;;;11.70;;
7661;SDS011;30314;48.184;11.510;2023-05-29T00:28:14;20.37;;;10.10;;
7661;SDS011;30314;48.184;11.510;2023-05-29T00:30:40;17.93;;;10.50;;
7661;SDS011;30314;48.184;11.510;2023-05-29T00:33:07;16.00;;;9.53;;
7661;SDS011;30314;48.184;11.510;2023-05-29T00:35:34;17.90;;;9.87;;
7661;SDS011;30314;48.184;11.510;2023-05-29T00:38:02;14.97;;;9.80;;
7661;SDS011;30314;48.184;11.510;2023-05-29T00:40:28;19.43;;;10.77;;
7661;SDS011;30314;48.184;11.510;2023-05-29T00:42:55;21.27;;;11.20;;
7661;SDS011;30314;48.184;11.510;2023-05-29T00:45:22;18.20;;;10.93;;
7661;SDS011;30314;48.184;11.510;2023-05-29T00:47:48;16.20;;;10.93;;
7661;SDS011;30314;48.184;11.510;2023-05-29T00:50:15;18.57;;;11.47;;
7661;SDS011;30314;48.184;11.510;2023-05-29T00:52:42;20.83;;;10.80;;
7661;SDS011;30314;48.184;11.510;2023-05-29T00:55:12;22.03;;;11.63;;
7661;SDS011;30314;48.184;11.510;2023-05-29T00:57:40;20.53;;;11.50;;
7661;SDS011;30314;48.184;11.510;2023-05-29T01:00:07;23.03;;;11.77;;
7661;SDS011;30314;48.184;11.510;2023-05-29T01:02:42;17.70;;;10.80;;
7661;SDS011;30314;48.184;11.510;2023-05-29T01:05:12;18.47;;;11.33;;
7661;SDS011;30314;48.184;11.510;2023-05-29T01:07:38;14.60;;;9.17;;
7661;SDS011;30314;48.184;11.510;2023-05-29T01:10:05;16.87;;;10.70;;
7661;SDS011;30314;48.184;11.510;2023-05-29T01:12:45;17.40;;;10.17;;
7661;SDS011;30314;48.184;11.510;2023-05-29T01:15:31;17.10;;;10.10;;
7661;SDS011;30314;48.184;11.510;2023-05-29T01:20:36;19.97;;;11.23;;
7661;SDS011;30314;48.184;11.510;2023-05-29T01:28:51;18.20;;;10.93;;
7661;SDS011;30314;48.184;11.510;2023-05-29T01:31:19;17.60;;;10.40;;
7661;SDS011;30314;48.184;11.510;2023-05-29T01:33:56;18.20;;;9.90;;
7661;SDS011;30314;48.184;11.510;2023-05-29T01:36:25;22.47;;;12.30;;
7661;SDS011;30314;48.184;11.510;2023-05-29T01:38:53;20.37;;;10.10;;
7661;SDS011;30314;48.184;11.510;2023-05-29T01:41:21;18.07;;;11.27;;
7661;SDS011;30314;48.184;11.510;2023-05-29T01:43:49;20.33;;;10.50;;
7661;SDS011;30314;48.184;11.510;2023-05-29T01:46:16;17.33;;;10.73;;
7661;SDS011;30314;48.184;11.510;2023-05-29T01:48:45;17.33;;;10.53;;
7661;SDS011;30314;48.184;11.510;2023-05-29T01:51:12;18.97;;;10.40;;
7661;SDS011;30314;48.184;11.510;2023-05-29T01:53:39;19.03;;;10.87;;
7661;SDS011;30314;48.184;11.510;2023-05-29T01:56:07;22.43;;;10.40;;
7661;SDS011;30314;48.184;11.510;2023-05-29T01:58:35;15.47;;;9.50;;
7661;SDS011;30314;48.184;11.510;2023-05-29T02:01:05;17.80;;;10.87;;
7661;SDS011;30314;48.184;11.510;2023-05-29T02:03:33;18.67;;;9.67;;
7661;SDS011;30314;48.184;11.510;2023-05-29T02:06:00;16.50;;;10.60;;
7661;SDS011;30314;48.184;11.510;2023-05-29T02:08:27;17.20;;;9.97;;
7661;SDS011;30314;48.184;11.510;2023-05-29T02:10:54;20.80;;;10.87;;
7661;SDS011;30314;48.184;11.510;2023-05-29T02:13:22;18.40;;;10.17;;
7661;SDS011;30314;48.184;11.510;2023-05-29T02:15:48;25.50;;;11.20;;
7661;SDS011;30314;48.184;11.510;2023-05-29T02:18:16;18.53;;;10.50;;
7661;SDS011;30314;48.184;11.510;2023-05-29T02:20:46;19.40;;;10.27;;
7661;SDS011;30314;48.184;11.510;2023-05-29T02:23:20;20.70;;;10.60;;
7661;SDS011;30314;48.184;11.510;2023-05-29T02:25:49;18.03;;;9.80;;
7661;SDS011;30314;48.184;11.510;2023-05-29T02:28:16;18.03;;;10.83;;
7661;SDS011;30314;48.184;11.510;2023-05-29T02:30:43;18.07;;;10.17;;
7661;SDS011;30314;48.184;11.510;2023-05-29T02:33:09;17.80;;;10.53;;
7661;SDS011;30314;48.184;11.510;2023-05-29T02:35:36;24.70;;;10.90;;
7661;SDS011;30314;48.184;11.510;2023-05-29T02:38:03;17.73;;;9.97;;
7661;SDS011;30314;48.184;11.510;2023-05-29T02:40:30;18.30;;;9.47;;
7661;SDS011;30314;48.184;11.510;2023-05-29T02:42:57;13.47;;;8.73;;
7661;SDS011;30314;48.184;11.510;2023-05-29T02:45:23;16.67;;;8.80;;
7661;SDS011;30314;48.184;11.510;2023-05-29T02:47:50;18.40;;;9.40;;
7661;SDS011;30314;48.184;11.510;2023-05-29T02:50:17;18.87;;;9.30;;
7661;SDS011;30314;48.184;11.510;2023-05-29T02:52:44;14.20;;;9.07;;
7661;SDS011;30314;48.184;11.510;2023-05-29T02:55:10;13.73;;;8.50;;
7661;SDS011;30314;48.184;11.510;2023-05-29T02:57:37;16.17;;;9.23;;
7661;SDS011;30314;48.184;11.510;2023-05-29T03:00:04;23.70;;;9.20;;
7661;SDS011;30314;48.184;11.510;2023-05-29T03:02:32;14.23;;;8.60;;
7661;SDS011;30314;48.184;11.510;2023-05-29T03:05:00;15.77;;;9.60;;
7661;SDS011;30314;48.184;11.510;2023-05-29T03:07:27;18.47;;;10.23;;
7661;SDS011;30314;48.184;11.510;2023-05-29T03:09:54;12.10;;;7.73;;
7661;SDS011;30314;48.184;11.510;2023-05-29T03:12:25;15.17;;;8.27;;
7661;SDS011;30314;48.184;11.510;2023-05-29T03:14:54;14.33;;;8.10;;
7661;SDS011;30314;48.184;11.510;2023-05-29T03:17:23;14.67;;;8.47;;
7661;SDS011;30314;48.184;11.510;2023-05-29T03:19:50;16.13;;;8.37;;
7661;SDS011;30314;48.184;11.510;2023-05-29T03:22:18;15.47;;;8.20;;
7661;SDS011;30314;48.184;11.510;2023-05-29T03:24:45;15.43;;;7.77;;
7661;SDS011;30314;48.184;11.510;2023-05-29T03:27:12;15.87;;;8.70;;
7661;SDS011;30314;48.184;11.510;2023-05-29T03:29:40;14.50;;;8.20;;
7661;SDS011;30314;48.184;11.510;2023-05-29T03:32:07;18.50;;;7.97;;
7661;SDS011;30314;48.184;11.510;2023-05-29T03:34:34;15.90;;;8.27;;
7661;SDS011;30314;48.184;11.510;2023-05-29T03:37:02;14.27;;;8.03;;
7661;SDS011;30314;48.184;11.510;2023-05-29T03:39:30;13.83;;;8.27;;
7661;SDS011;30314;48.184;11.510;2023-05-29T03:41:57;16.50;;;7.67;;
7661;SDS011;30314;48.184;11.510;2023-05-29T03:44:24;12.20;;;7.20;;
7661;SDS011;30314;48.184;11.510;2023-05-29T03:46:51;17.43;;;8.20;;
7661;SDS011;30314;48.184;11.510;2023-05-29T03:49:18;13.73;;;8.03;;
7661;SDS011;30314;48.184;11.510;2023-05-29T03:51:45;16.23;;;8.47;;
7661;SDS011;30314;48.184;11.510;2023-05-29T03:54:13;13.37;;;7.87;;
7661;SDS011;30314;48.184;11.510;2023-05-29T03:56:39;18.33;;;8.50;;
7661;SDS011;30314;48.184;11.510;2023-05-29T03:59:07;11.57;;;7.07;;
7661;SDS011;30314;48.184;11.510;2023-05-29T04:01:33;13.23;;;7.47;;
7661;SDS011;30314;48.184;11.510;2023-05-29T04:04:00;13.50;;;7.90;;
7661;SDS011;30314;48.184;11.510;2023-05-29T04:06:28;10.60;;;6.97;;
7661;SDS011;30314;48.184;11.510;2023-05-29T04:08:55;15.80;;;7.70;;
7661;SDS011;30314;48.184;11.510;2023-05-29T04:11:22;11.37;;;6.50;;
7661;SDS011;30314;48.184;11.510;2023-05-29T04:13:49;19.83;;;7.70;;
7661;SDS011;30314;48.184;11.510;2023-05-29T04:16:16;14.47;;;6.93;;
7661;SDS011;30314;48.184;11.510;2023-05-29T04:18:43;12.40;;;7.13;;
7661;SDS011;30314;48.184;11.510;2023-05-29T04:21:09;14.67;;;7.13;;
7661;SDS011;30314;48.184;11.510;2023-05-29T04:23:37;15.43;;;7.60;;
7661;SDS011;30314;48.184;11.510;2023-05-29T04:26:04;13.60;;;7.77;;
7661;SDS011;30314;48.184;11.510;2023-05-29T04:28:34;15.63;;;8.27;;
7661;SDS011;30314;48.184;11.510;2023-05-29T04:31:03;13.33;;;7.97;;
7661;SDS011;30314;48.184;11.510;2023-05-29T04:33:32;11.80;;;6.87;;
7661;SDS011;30314;48.184;11.510;2023-05-29T04:36:03;10.03;;;6.07;;
7661;SDS011;30314;48.184;11.510;2023-05-29T04:38:32;11.10;;;6.20;;
7661;SDS011;30314;48.184;11.510;2023-05-29T04:40:58;12.53;;;6.13;;
7661;SDS011;30314;48.184;11.510;2023-05-29T04:43:27;12.80;;;6.90;;
7661;SDS011;30314;48.184;11.510;2023-05-29T04:46:00;12.23;;;6.60;;
7661;SDS011;30314;48.184;11.510;2023-05-29T04:48:30;17.20;;;7.67;;
7661;SDS011;30314;48.184;11.510;2023-05-29T04:50:57;14.30;;;6.93;;
7661;SDS011;30314;48.184;11.510;2023-05-29T04:53:26;11.80;;;6.97;;
7661;SDS011;30314;48.184;11.510;2023-05-29T04:55:52;10.80;;;6.13;;
7661;SDS011;30314;48.184;11.510;2023-05-29T04:58:20;11.73;;;6.77;;
7661;SDS011;30314;48.184;11.510;2023-05-29T05:00:49;13.23;;;6.37;;
7661;SDS011;30314;48.184;11.510;2023-05-29T05:03:15;12.53;;;6.77;;
7661;SDS011;30314;48.184;11.510;2023-05-29T05:05:43;14.27;;;6.40;;
7661;SDS011;30314;48.184;11.510;2023-05-29T05:08:12;9.43;;;5.63;;
7661;SDS011;30314;48.184;11.510;2023-05-29T05:10:38;12.73;;;5.77;;
7661;SDS011;30314;48.184;11.510;2023-05-29T05:13:05;12.77;;;6.83;;
7661;SDS011;30314;48.184;11.510;2023-05-29T05:15:35;9.70;;;6.00;;
7661;SDS011;30314;48.184;11.510;2023-05-29T05:18:03;9.83;;;5.90;;
7661;SDS011;30314;48.184;11.510;2023-05-29T05:20:31;10.83;;;6.03;;
7661;SDS011;30314;48.184;11.510;2023-05-29T05:22:58;12.53;;;6.93;;
7661;SDS011;30314;48.184;11.510;2023-05-29T05:25:26;11.33;;;7.40;;
7661;SDS011;30314;48.184;11.510;2023-05-29T05:27:53;15.13;;;6.50;;
7661;SDS011;30314;48.184;11.510;2023-05-29T05:30:21;12.77;;;6.83;;
7661;SDS011;30314;48.184;11.510;2023-05-29T05:32:48;10.37;;;6.20;;
7661;SDS011;30314;48.184;11.510;2023-05-29T05:35:14;11.60;;;6.40;;
7661;SDS011;30314;48.184;11.510;2023-05-29T05:37:42;12.30;;;6.90;;
7661;SDS011;30314;48.184;11.510;2023-05-29T05:40:10;11.60;;;6.80;;
7661;SDS011;30314;48.184;11.510;2023-05-29T05:42:47;10.03;;;6.20;;
7661;SDS011;30314;48.184;11.510;2023-05-29T05:45:15;12.40;;;5.77;;
7661;SDS011;30314;48.184;11.510;2023-05-29T05:47:42;12.73;;;6.47;;
7661;SDS011;30314;48.184;11.510;2023-05-29T05:50:09;11.20;;;6.30;;
7661;SDS011;30314;48.184;11.510;2023-05-29T05:52:36;10.40;;;5.87;;
7661;SDS011;30314;48.184;11.510;2023-05-29T05:55:04;12.60;;;6.50;;
7661;SDS011;30314;48.184;11.510;2023-05-29T05:57:31;9.90;;;5.60;;
7661;SDS011;30314;48.184;11.510;2023-05-29T05:59:59;10.10;;;5.10;;
7661;SDS011;30314;48.184;11.510;2023-05-29T06:02:27;12.73;;;6.10;;
7661;SDS011;30314;48.184;11.510;2023-05-29T06:04:54;13.43;;;5.60;;
7661;SDS011;30314;48.184;11.510;2023-05-29T06:07:21;9.73;;;4.97;;
7661;SDS011;30314;48.184;11.510;2023-05-29T06:09:48;14.63;;;4.70;;
7661;SDS011;30314;48.184;11.510;2023-05-29T06:12:15;10.53;;;5.80;;
7661;SDS011;30314;48.184;11.510;2023-05-29T06:14:52;11.73;;;5.80;;
7661;SDS011;30314;48.184;11.510;2023-05-29T06:17:18;8.37;;;5.70;;
7661;SDS011;30314;48.184;11.510;2023-05-29T06:19:48;13.80;;;5.70;;
7661;SDS011;30314;48.184;11.510;2023-05-29T06:22:15;9.63;;;5.13;;
7661;SDS011;30314;48.184;11.510;2023-05-29T06:24:42;10.60;;;6.13;;
7661;SDS011;30314;48.184;11.510;2023-05-29T06:27:09;12.20;;;5.23;;
7661;SDS011;30314;48.184;11.510;2023-05-29T06:29:36;9.37;;;4.90;;
7661;SDS011;30314;48.184;11.510;2023-05-29T06:32:02;11.60;;;5.70;;
7661;SDS011;30314;48.184;11.510;2023-05-29T06:34:30;11.97;;;5.67;;
7661;SDS011;30314;48.184;11.510;2023-05-29T06:36:57;9.70;;;5.40;;
7661;SDS011;30314;48.184;11.510;2023-05-29T06:39:23;9.27;;;5.20;;
7661;SDS011;30314;48.184;11.510;2023-05-29T06:41:51;11.47;;;6.30;;
7661;SDS011;30314;48.184;11.510;2023-05-29T06:44:18;12.40;;;5.77;;
7661;SDS011;30314;48.184;11.510;2023-05-29T06:46:44;8.90;;;5.10;;
7661;SDS011;30314;48.184;11.510;2023-05-29T06:49:11;11.50;;;5.70;;
7661;SDS011;30314;48.184;11.510;2023-05-29T06:51:38;12.23;;;5.30;;
7661;SDS011;30314;48.184;11.510;2023-05-29T06:54:13;10.77;;;6.00;;
7661;SDS011;30314;48.184;11.510;2023-05-29T06:56:40;10.43;;;5.87;;
7661;SDS011;30314;48.184;11.510;2023-05-29T06:59:07;6.97;;;4.90;;
7661;SDS011;30314;48.184;11.510;2023-05-29T07:01:34;10.43;;;6.00;;
7661;SDS011;30314;48.184;11.510;2023-05-29T07:04:02;10.50;;;4.97;;
7661;SDS011;30314;48.184;11.510;2023-05-29T07:06:30;13.33;;;6.10;;
7661;SDS011;30314;48.184;11.510;2023-05-29T07:08:58;11.70;;;5.87;;
7661;SDS011;30314;48.184;11.510;2023-05-29T07:11:24;7.40;;;4.57;;
7661;SDS011;30314;48.184;11.510;2023-05-29T07:13:53;10.70;;;5.87;;
7661;SDS011;30314;48.184;11.510;2023-05-29T07:16:21;10.87;;;5.87;;
7661;SDS011;30314;48.184;11.510;2023-05-29T07:19:00;12.33;;;5.87;;
7661;SDS011;30314;48.184;11.510;2023-05-29T07:21:29;12.47;;;6.63;;
7661;SDS011;30314;48.184;11.510;2023-05-29T07:23:58;9.53;;;5.43;;
7661;SDS011;30314;48.184;11.510;2023-05-29T07:26:25;8.40;;;5.17;;
7661;SDS011;30314;48.184;11.510;2023-05-29T07:28:52;10.90;;;5.97;;
7661;SDS011;30314;48.184;11.510;2023-05-29T07:31:19;10.03;;;6.80;;
7661;SDS011;30314;48.184;11.510;2023-05-29T07:33:48;9.40;;;5.60;;
7661;SDS011;30314;48.184;11.510;2023-05-29T07:36:15;10.07;;;4.90;;
7661;SDS011;30314;48.184;11.510;2023-05-29T07:38:45;9.47;;;4.53;;
7661;SDS011;30314;48.184;11.510;2023-05-29T07:41:15;9.10;;;4.63;;
7661;SDS011;30314;48.184;11.510;2023-05-29T07:43:48;10.50;;;5.00;;
7661;SDS011;30314;48.184;11.510;2023-05-29T07:46:18;10.40;;;4.87;;
7661;SDS011;30314;48.184;11.510;2023-05-29T07:48:48;9.13;;;5.33;;
7661;SDS011;30314;48.184;11.510;2023-05-29T07:51:16;10.10;;;5.70;;
7661;SDS011;30314;48.184;11.510;2023-05-29T07:53:45;11.43;;;5.40;;
7661;SDS011;30314;48.184;11.510;2023-05-29T07:56:13;9.80;;;5.43;;
7661;SDS011;30314;48.184;11.510;2023-05-29T07:58:40;9.97;;;5.90;;
7661;SDS011;30314;48.184;11.510;2023-05-29T08:01:07;11.53;;;7.03;;
7661;SDS011;30314;48.184;11.510;2023-05-29T08:03:35;12.43;;;6.57;;
7661;SDS011;30314;48.184;11.510;2023-05-29T08:06:23;10.37;;;5.57;;
7661;SDS011;30314;48.184;11.510;2023-05-29T08:08:49;8.30;;;4.93;;
7661;SDS011;30314;48.184;11.510;2023-05-29T08:11:16;10.80;;;5.90;;
7661;SDS011;30314;48.184;11.510;2023-05-29T08:13:44;11.20;;;5.97;;
7661;SDS011;30314;48.184;11.510;2023-05-29T08:16:11;10.33;;;5.03;;
7661;SDS011;30314;48.184;11.510;2023-05-29T08:18:41;9.80;;;6.20;;
7661;SDS011;30314;48.184;11.510;2023-05-29T08:21:08;10.47;;;5.00;;
7661;SDS011;30314;48.184;11.510;2023-05-29T08:23:35;8.77;;;5.40;;
7661;SDS011;30314;48.184;11.510;2023-05-29T08:26:02;10.77;;;6.10;;
7661;SDS011;30314;48.184;11.510;2023-05-29T08:28:31;7.77;;;4.90;;
7661;SDS011;30314;48.184;11.510;2023-05-29T08:30:58;8.40;;;5.00;;
7661;SDS011;30314;48.184;11.510;2023-05-29T08:33:25;10.27;;;5.30;;
7661;SDS011;30314;48.184;11.510;2023-05-29T08:35:51;10.03;;;6.20;;
7661;SDS011;30314;48.184;11.510;2023-05-29T08:38:18;10.23;;;5.10;;
7661;SDS011;30314;48.184;11.510;2023-05-29T08:40:47;9.80;;;5.27;;
7661;SDS011;30314;48.184;11.510;2023-05-29T08:43:20;8.47;;;5.50;;
7661;SDS011;30314;48.184;11.510;2023-05-29T08:45:47;8.87;;;5.00;;
7661;SDS011;30314;48.184;11.510;2023-05-29T08:48:23;13.63;;;6.03;;
7661;SDS011;30314;48.184;11.510;2023-05-29T08:50:52;9.73;;;4.80;;
7661;SDS011;30314;48.184;11.510;2023-05-29T08:53:21;11.57;;;5.70;;
7661;SDS011;30314;48.184;11.510;2023-05-29T08:55:48;10.60;;;5.50;;
7661;SDS011;30314;48.184;11.510;2023-05-29T08:58:19;8.37;;;4.77;;
7661;SDS011;30314;48.184;11.510;2023-05-29T09:00:49;7.63;;;5.00;;
7661;SDS011;30314;48.184;11.510;2023-05-29T09:03:17;9.87;;;5.60;;
7661;SDS011;30314;48.184;11.510;2023-05-29T09:05:44;8.60;;;5.90;;
7661;SDS011;30314;48.184;11.510;2023-05-29T09:08:11;12.23;;;5.07;;
7661;SDS011;30314;48.184;11.510;2023-05-29T09:10:40;11.70;;;5.43;;
7661;SDS011;30314;48.184;11.510;2023-05-29T09:13:07;8.77;;;4.70;;
7661;SDS011;30314;48.184;11.510;2023-05-29T09:15:36;10.40;;;5.70;;
7661;SDS011;30314;48.184;11.510;2023-05-29T09:18:05;7.23;;;5.00;;
7661;SDS011;30314;48.184;11.510;2023-05-29T09:20:32;6.93;;;4.77;;
7661;SDS011;30314;48.184;11.510;2023-05-29T09:23:00;7.70;;;4.37;;
7661;SDS011;30314;48.184;11.510;2023-05-29T09:25:28;10.87;;;4.80;;
7661;SDS011;30314;48.184;11.510;2023-05-29T09:28:03;7.57;;;4.53;;
7661;SDS011;30314;48.184;11.510;2023-05-29T09:33:05;8.10;;;3.90;;
7661;SDS011;30314;48.184;11.510;2023-05-29T09:38:06;9.90;;;5.10;;
7661;SDS011;30314;48.184;11.510;2023-05-29T09:40:37;15.20;;;5.10;;
7661;SDS011;30314;48.184;11.510;2023-05-29T09:43:10;8.40;;;4.40;;
7661;SDS011;30314;48.184;11.510;2023-05-29T09:45:41;12.23;;;5.47;;
7661;SDS011;30314;48.184;11.510;2023-05-29T09:48:18;13.87;;;5.27;;
7661;SDS011;30314;48.184;11.510;2023-05-29T09:50:49;8.30;;;4.40;;
7661;SDS011;30314;48.184;11.510;2023-05-29T09:53:17;9.33;;;3.53;;
7661;SDS011;30314;48.184;11.510;2023-05-29T09:55:46;8.90;;;4.80;;
7661;SDS011;30314;48.184;11.510;2023-05-29T09:58:23;11.43;;;5.33;;
7661;SDS011;30314;48.184;11.510;2023-05-29T10:00:50;10.47;;;5.23;;
7661;SDS011;30314;48.184;11.510;2023-05-29T10:03:18;9.20;;;4.50;;
7661;SDS011;30314;48.184;11.510;2023-05-29T10:05:52;6.33;;;4.37;;
7661;SDS011;30314;48.184;11.510;2023-05-29T10:08:23;8.00;;;4.53;;
7661;SDS011;30314;48.184;11.510;2023-05-29T10:10:53;8.10;;;4.00;;
7661;SDS011;30314;48.184;11.510;2023-05-29T10:13:25;7.00;;;4.57;;
7661;SDS011;30314;48.184;11.510;2023-05-29T10:15:57;7.80;;;4.20;;
7661;SDS011;30314;48.184;11.510;2023-05-29T10:18:27;7.13;;;4.60;;
7661;SDS011;30314;48.184;11.510;2023-05-29T10:21:00;13.73;;;5.77;;
7661;SDS011;30314;48.184;11.510;2023-05-29T10:23:28;8.60;;;4.43;;
7661;SDS011;30314;48.184;11.510;2023-05-29T10:26:06;8.03;;;4.50;;
7661;SDS011;30314;48.184;11.510;2023-05-29T10:28:39;7.57;;;4.47;;
7661;SDS011;30314;48.184;11.510;2023-05-29T10:31:09;7.40;;;4.07;;
7661;SDS011;30314;48.184;11.510;2023-05-29T10:34:14;9.30;;;5.00;;
7661;SDS011;30314;48.184;11.510;2023-05-29T10:36:53;8.43;;;4.53;;
7661;SDS011;30314;48.184;11.510;2023-05-29T10:39:28;7.70;;;4.23;;
7661;SDS011;30314;48.184;11.510;2023-05-29T10:41:55;9.77;;;3.80;;
7661;SDS011;30314;48.184;11.510;2023-05-29T10:44:46;5.67;;;4.07;;
7661;SDS011;30314;48.184;11.510;2023-05-29T10:47:11;8.80;;;4.30;;
7661;SDS011;30314;48.184;11.510;2023-05-29T10:49:39;9.77;;;4.07;;
7661;SDS011;30314;48.184;11.510;2023-05-29T10:52:06;7.70;;;4.33;;
7661;SDS011;30314;48.184;11.510;2023-05-29T10:54:40;8.27;;;4.20;;
7661;SDS011;30314;48.184;11.510;2023-05-29T10:57:15;5.30;;;4.20;;
7661;SDS011;30314;48.184;11.510;2023-05-29T10:59:42;10.77;;;4.93;;
7661;SDS011;30314;48.184;11.510;2023-05-29T11:02:11;7.13;;;4.03;;
7661;SDS011;30314;48.184;11.510;2023-05-29T11:04:43;8.27;;;4.63;;
7661;SDS011;30314;48.184;11.510;2023-05-29T11:10:10;6.57;;;3.80;;
7661;SDS011;30314;48.184;11.510;2023-05-29T11:12:55;8.23;;;4.27;;
7661;SDS011;30314;48.184;11.510;2023-05-29T11:15:23;6.53;;;4.17;;
7661;SDS011;30314;48.184;11.510;2023-05-29T11:17:50;10.27;;;4.30;;
7661;SDS011;30314;48.184;11.510;2023-05-29T11:23:04;8.70;;;4.50;;
7661;SDS011;30314;48.184;11.510;2023-05-29T11:25:35;8.43;;;4.17;;
7661;SDS011;30314;48.184;11.510;2023-05-29T11:28:04;8.60;;;4.50;;
7661;SDS011;30314;48.184;11.510;2023-05-29T11:30:41;6.80;;;3.43;;
7661;SDS011;30314;48.184;11.510;2023-05-29T11:33:19;5.30;;;2.97;;
7661;SDS011;30314;48.184;11.510;2023-05-29T11:35:56;10.60;;;4.23;;
7661;SDS011;30314;48.184;11.510;2023-05-29T11:38:25;6.63;;;3.73;;
7661;SDS011;30314;48.184;11.510;2023-05-29T11:40:56;5.30;;;3.43;;
7661;SDS011;30314;48.184;11.510;2023-05-29T11:43:24;10.50;;;3.83;;
7661;SDS011;30314;48.184;11.510;2023-05-29T11:45:51;6.07;;;4.00;;
7661;SDS011;30314;48.184;11.510;2023-05-29T11:48:18;5.90;;;3.80;;
7661;SDS011;30314;48.184;11.510;2023-05-29T11:50:44;8.43;;;4.00;;
7661;SDS011;30314;48.184;11.510;2023-05-29T11:53:11;11.30;;;3.63;;
7661;SDS011;30314;48.184;11.510;2023-05-29T11:55:38;8.30;;;4.27;;
7661;SDS011;30314;48.184;11.510;2023-05-29T11:58:05;6.37;;;4.20;;
7661;SDS011;30314;48.184;11.510;2023-05-29T12:00:32;6.27;;;3.73;;
7661;SDS011;30314;48.184;11.510;2023-05-29T12:03:04;9.83;;;4.80;;
7661;SDS011;30314;48.184;11.510;2023-05-29T12:05:32;5.03;;;3.90;;
7661;SDS011;30314;48.184;11.510;2023-05-29T12:08:15;8.33;;;4.20;;
7661;SDS011;30314;48.184;11.510;2023-05-29T12:10:46;6.30;;;4.40;;
7661;SDS011;30314;48.184;11.510;2023-05-29T12:13:14;6.10;;;4.30;;
7661;SDS011;30314;48.184;11.510;2023-05-29T12:15:43;8.63;;;4.03;;
7661;SDS011;30314;48.184;11.510;2023-05-29T12:18:10;7.27;;;4.13;;
7661;SDS011;30314;48.184;11.510;2023-05-29T12:20:37;5.80;;;3.80;;
7661;SDS011;30314;48.184;11.510;2023-05-29T12:23:04;7.00;;;4.20;;
7661;SDS011;30314;48.184;11.510;2023-05-29T12:25:33;5.77;;;3.20;;
7661;SDS011;30314;48.184;11.510;2023-05-29T12:28:03;8.70;;;3.97;;
7661;SDS011;30314;48.184;11.510;2023-05-29T12:30:30;7.10;;;4.20;;
7661;SDS011;30314;48.184;11.510;2023-05-29T12:33:02;5.50;;;4.10;;
7661;SDS011;30314;48.184;11.510;2023-05-29T12:35:29;11.00;;;4.07;;
7661;SDS011;30314;48.184;11.510;2023-05-29T12:37:57;5.40;;;3.70;;
7661;SDS011;30314;48.184;11.510;2023-05-29T12:40:26;8.30;;;4.30;;
7661;SDS011;30314;48.184;11.510;2023-05-29T12:42:58;5.80;;;3.87;;
7661;SDS011;30314;48.184;11.510;2023-05-29T12:45:30;7.30;;;3.77;;
7661;SDS011;30314;48.184;11.510;2023-05-29T12:48:02;6.20;;;3.50;;
7661;SDS011;30314;48.184;11.510;2023-05-29T12:50:31;8.30;;;3.50;;
7661;SDS011;30314;48.184;11.510;2023-05-29T12:53:09;5.23;;;4.17;;
7661;SDS011;30314;48.184;11.510;2023-05-29T12:55:37;10.53;;;3.80;;
7661;SDS011;30314;48.184;11.510;2023-05-29T12:58:06;4.83;;;3.70;;
7661;SDS011;30314;48.184;11.510;2023-05-29T13:00:34;6.57;;;3.93;;
7661;SDS011;30314;48.184;11.510;2023-05-29T13:03:03;6.47;;;3.27;;
7661;SDS011;30314;48.184;11.510;2023-05-29T13:05:30;4.63;;;3.30;;
7661;SDS011;30314;48.184;11.510;2023-05-29T13:07:57;6.13;;;3.67;;
7661;SDS011;30314;48.184;11.510;2023-05-29T13:10:25;8.30;;;2.87;;
7661;SDS011;30314;48.184;11.510;2023-05-29T13:12:53;4.80;;;3.47;;
7661;SDS011;30314;48.184;11.510;2023-05-29T13:15:24;5.97;;;4.13;;
7661;SDS011;30314;48.184;11.510;2023-05-29T13:17:52;5.90;;;3.13;;
7661;SDS011;30314;48.184;11.510;2023-05-29T13:20:19;7.57;;;3.73;;
7661;SDS011;30314;48.184;11.510;2023-05-29T13:22:46;4.70;;;3.63;;
7661;SDS011;30314;48.184;11.510;2023-05-29T13:25:14;6.63;;;3.70;;
7661;SDS011;30314;48.184;11.510;2023-05-29T13:27:46;5.60;;;3.37;;
7661;SDS011;30314;48.184;11.510;2023-05-29T13:30:14;8.20;;;4.43;;
7661;SDS011;30314;48.184;11.510;2023-05-29T13:32:41;7.40;;;4.00;;
7661;SDS011;30314;48.184;11.510;2023-05-29T13:35:09;8.60;;;3.97;;
7661;SDS011;30314;48.184;11.510;2023-05-29T13:37:36;6.00;;;4.23;;
7661;SDS011;30314;48.184;11.510;2023-05-29T13:40:04;10.10;;;3.30;;
7661;SDS011;30314;48.184;11.510;2023-05-29T13:42:31;8.37;;;3.43;;
7661;SDS011;30314;48.184;11.510;2023-05-29T13:44:58;6.07;;;3.83;;
7661;SDS011;30314;48.184;11.510;2023-05-29T13:47:25;7.30;;;3.37;;
7661;SDS011;30314;48.184;11.510;2023-05-29T13:49:55;6.00;;;4.03;;
7661;SDS011;30314;48.184;11.510;2023-05-29T13:52:22;6.83;;;3.10;;
7661;SDS011;30314;48.184;11.510;2023-05-29T13:54:49;4.90;;;3.40;;
7661;SDS011;30314;48.184;11.510;2023-05-29T13:57:15;5.83;;;3.50;;
7661;SDS011;30314;48.184;11.510;2023-05-29T13:59:42;6.10;;;3.57;;
7661;SDS011;30314;48.184;11.510;2023-05-29T14:02:08;6.23;;;3.33;;
7661;SDS011;30314;48.184;11.510;2023-05-29T14:04:35;6.33;;;3.47;;
7661;SDS011;30314;48.184;11.510;2023-05-29T14:07:02;8.57;;;4.37;;
7661;SDS011;30314;48.184;11.510;2023-05-29T14:09:28;5.40;;;3.57;;
7661;SDS011;30314;48.184;11.510;2023-05-29T14:11:56;5.70;;;3.10;;
7661;SDS011;30314;48.184;11.510;2023-05-29T14:14:23;6.00;;;4.40;;
7661;SDS011;30314;48.184;11.510;2023-05-29T14:16:50;10.80;;;4.10;;
7661;SDS011;30314;48.184;11.510;2023-05-29T14:19:18;10.60;;;3.90;;
7661;SDS011;30314;48.184;11.510;2023-05-29T14:21:45;7.03;;;4.43;;
7661;SDS011;30314;48.184;11.510;2023-05-29T14:27:00;8.00;;;4.77;;
7661;SDS011;30314;48.184;11.510;2023-05-29T14:29:28;5.50;;;3.83;;
7661;SDS011;30314;48.184;11.510;2023-05-29T14:31:55;7.57;;;4.27;;
7661;SDS011;30314;48.184;11.510;2023-05-29T14:34:21;5.70;;;4.10;;
7661;SDS011;30314;48.184;11.510;2023-05-29T14:36:48;5.33;;;4.07;;
7661;SDS011;30314;48.184;11.510;2023-05-29T14:39:17;6.27;;;3.27;;
7661;SDS011;30314;48.184;11.510;2023-05-29T14:41:43;5.73;;;3.30;;
7661;SDS011;30314;48.184;11.510;2023-05-29T14:44:10;9.80;;;4.17;;
7661;SDS011;30314;48.184;11.510;2023-05-29T14:46:38;6.67;;;3.90;;
7661;SDS011;30314;48.184;11.510;2023-05-29T14:49:05;8.67;;;3.67;;
7661;SDS011;30314;48.184;11.510;2023-05-29T14:51:32;6.50;;;3.70;;
7661;SDS011;30314;48.184;11.510;2023-05-29T14:53:59;6.43;;;4.20;;
7661;SDS011;30314;48.184;11.510;2023-05-29T14:56:26;5.53;;;3.13;;
7661;SDS011;30314;48.184;11.510;2023-05-29T14:58:53;5.47;;;3.57;;
7661;SDS011;30314;48.184;11.510;2023-05-29T15:01:19;5.37;;;3.40;;
7661;SDS011;30314;48.184;11.510;2023-05-29T15:03:46;4.50;;;2.97;;
7661;SDS011;30314;48.184;11.510;2023-05-29T15:06:13;4.50;;;3.60;;
7661;SDS011;30314;48.184;11.510;2023-05-29T15:08:40;5.83;;;3.60;;